createdAt,value
2023-04-07T00:00:01.343Z,8.86
2023-04-07T00:01:01.303Z,8.81
2023-04-07T00:02:01.362Z,8.86
2023-04-07T00:03:01.334Z,8.92
2023-04-07T00:04:01.477Z,8.16
2023-04-07T00:05:01.361Z,7.90
2023-04-07T00:06:01.281Z,8.81
2023-04-07T00:07:01.254Z,8.86
2023-04-07T00:08:01.253Z,9.61
2023-04-07T00:09:01.221Z,8.27
2023-04-07T00:10:01.240Z,8.97
2023-04-07T00:11:01.204Z,9.13
2023-04-07T00:12:01.216Z,9.35
2023-04-07T00:13:01.182Z,9.72
2023-04-07T00:14:01.209Z,7.90
2023-04-07T00:15:01.181Z,8.92
2023-04-07T00:16:01.197Z,7.84
2023-04-07T00:17:01.139Z,9.61
2023-04-07T00:18:01.202Z,8.86
2023-04-07T00:19:01.123Z,8.38
2023-04-07T00:20:01.155Z,8.11
2023-04-07T00:21:01.110Z,8.86
2023-04-07T00:22:01.118Z,8.81
2023-04-07T00:23:01.087Z,9.51
2023-04-07T00:24:01.081Z,8.22
2023-04-07T00:25:01.058Z,9.61
2023-04-07T00:26:01.091Z,8.81
2023-04-07T00:27:01.053Z,8.86
2023-04-07T00:28:01.066Z,8.81
2023-04-07T00:29:01.021Z,8.86
2023-04-07T00:30:01.019Z,8.81
2023-04-07T00:31:01.059Z,9.02
2023-04-07T00:32:01.016Z,8.92
2023-04-07T00:33:00.999Z,8.86
2023-04-07T00:34:00.980Z,8.86
2023-04-07T00:35:02.388Z,8.86
2023-04-07T00:36:01.053Z,8.92
2023-04-07T00:37:00.941Z,8.22
2023-04-07T00:38:00.956Z,8.92
2023-04-07T00:39:00.911Z,8.81
2023-04-07T00:40:00.932Z,9.61
2023-04-07T00:41:00.907Z,8.81
2023-04-07T00:42:00.910Z,7.95
2023-04-07T00:43:00.869Z,8.06
2023-04-07T00:44:00.898Z,8.00
2023-04-07T00:45:00.866Z,8.92
2023-04-07T00:46:00.867Z,8.11
2023-04-07T00:47:00.841Z,8.81
2023-04-07T00:48:00.889Z,8.81
2023-04-07T00:49:00.809Z,8.86
2023-04-07T00:50:00.826Z,8.81
2023-04-07T00:51:00.815Z,8.86
2023-04-07T00:52:00.813Z,8.11
2023-04-07T00:53:00.770Z,8.86
2023-04-07T00:54:00.787Z,8.81
2023-04-07T00:55:00.754Z,8.86
2023-04-07T00:56:00.771Z,8.86
2023-04-07T00:57:00.738Z,8.81
2023-04-07T00:58:00.792Z,8.86
2023-04-07T00:59:00.718Z,8.06
2023-04-07T01:00:00.731Z,7.90
2023-04-07T01:01:00.682Z,8.81
2023-04-07T01:02:00.787Z,8.81
2023-04-07T01:03:00.971Z,8.33
2023-04-07T01:04:01.030Z,8.97
2023-04-07T01:05:00.702Z,8.81
2023-04-07T01:06:00.645Z,8.11
2023-04-07T01:07:00.622Z,8.06
2023-04-07T01:08:00.643Z,9.72
2023-04-07T01:09:00.619Z,8.75
2023-04-07T01:10:00.600Z,7.73
2023-04-07T01:11:00.575Z,8.81
2023-04-07T01:12:00.606Z,8.43
2023-04-07T01:13:00.560Z,8.81
2023-04-07T01:14:00.577Z,8.75
2023-04-07T01:15:00.530Z,8.75
2023-04-07T01:16:00.599Z,8.75
2023-04-07T01:17:00.528Z,8.86
2023-04-07T01:18:00.586Z,8.86
2023-04-07T01:19:00.494Z,8.27
2023-04-07T01:20:00.515Z,9.45
2023-04-07T01:21:00.471Z,8.75
2023-04-07T01:22:00.497Z,8.81
2023-04-07T01:23:00.448Z,8.75
2023-04-07T01:24:00.469Z,8.81
2023-04-07T01:25:00.427Z,8.75
2023-04-07T01:26:00.446Z,9.02
2023-04-07T01:27:00.415Z,8.70
2023-04-07T01:28:00.435Z,8.86
2023-04-07T01:29:00.385Z,8.81
2023-04-07T01:30:00.429Z,8.86
2023-04-07T01:31:00.370Z,8.75
2023-04-07T01:32:00.429Z,9.67
2023-04-07T01:33:00.420Z,8.75
2023-04-07T01:34:00.367Z,8.86
2023-04-07T01:35:00.342Z,9.83
2023-04-07T01:36:00.356Z,7.90
2023-04-07T01:37:00.337Z,8.75
2023-04-07T01:38:00.324Z,8.75
2023-04-07T01:39:00.288Z,8.81
2023-04-07T01:40:00.318Z,8.75
2023-04-07T01:41:00.273Z,9.83
2023-04-07T01:42:00.310Z,8.81
2023-04-07T01:43:00.251Z,7.79
2023-04-07T01:44:00.271Z,8.16
2023-04-07T01:45:00.225Z,8.75
2023-04-07T01:46:00.219Z,8.81
2023-04-07T01:47:00.270Z,8.75
2023-04-07T01:48:00.246Z,8.33
2023-04-07T01:49:00.218Z,9.56
2023-04-07T01:50:00.201Z,8.38
2023-04-07T01:51:00.208Z,9.24
2023-04-07T01:52:00.158Z,7.90
2023-04-07T01:53:00.162Z,8.75
2023-04-07T01:54:00.152Z,9.24
2023-04-07T01:55:00.158Z,9.29
2023-04-07T01:56:00.137Z,8.81
2023-04-07T01:57:00.141Z,8.81
2023-04-07T01:58:00.127Z,8.70
2023-04-07T01:59:00.191Z,7.68
2023-04-07T02:00:00.102Z,9.88
2023-04-07T02:01:00.157Z,8.75
2023-04-07T02:02:00.179Z,8.75
2023-04-07T02:03:00.301Z,8.70
2023-04-07T02:04:00.360Z,8.81
2023-04-07T02:05:00.063Z,9.13
2023-04-07T02:06:00.029Z,9.29
2023-04-07T02:07:00.047Z,8.27
2023-04-07T02:08:00.007Z,8.75
2023-04-07T02:09:00.036Z,8.86
2023-04-07T02:09:59.982Z,8.75
2023-04-07T02:11:00.002Z,8.86
2023-04-07T02:11:59.969Z,9.35
2023-04-07T02:12:59.976Z,8.81
2023-04-07T02:13:59.937Z,7.90
2023-04-07T02:14:59.986Z,8.22
2023-04-07T02:15:59.947Z,8.81
2023-04-07T02:16:59.923Z,8.70
2023-04-07T02:17:59.963Z,8.86
2023-04-07T02:18:59.912Z,8.70
2023-04-07T02:19:59.880Z,7.57
2023-04-07T02:20:59.896Z,8.81
2023-04-07T02:21:59.857Z,8.75
2023-04-07T02:22:59.875Z,8.81
2023-04-07T02:23:59.837Z,7.84
2023-04-07T02:24:59.862Z,9.08
2023-04-07T02:25:59.817Z,9.51
2023-04-07T02:26:59.829Z,8.75
2023-04-07T02:27:59.822Z,8.65
2023-04-07T02:28:59.832Z,8.65
2023-04-07T02:29:59.778Z,8.70
2023-04-07T02:30:59.782Z,8.75
2023-04-07T02:31:59.813Z,8.27
2023-04-07T02:32:59.812Z,8.70
2023-04-07T02:33:59.745Z,8.70
2023-04-07T02:34:59.741Z,9.29
2023-04-07T02:35:59.715Z,8.70
2023-04-07T02:36:59.758Z,8.81
2023-04-07T02:37:59.699Z,8.70
2023-04-07T02:38:59.728Z,8.81
2023-04-07T02:39:59.686Z,8.70
2023-04-07T02:40:59.679Z,9.51
2023-04-07T02:41:59.660Z,10.21
2023-04-07T02:42:59.676Z,8.75
2023-04-07T02:43:59.634Z,8.75
2023-04-07T02:44:59.651Z,8.70
2023-04-07T02:45:59.670Z,8.70
2023-04-07T02:46:59.631Z,7.79
2023-04-07T02:47:59.623Z,7.73
2023-04-07T02:48:59.615Z,8.75
2023-04-07T02:49:59.582Z,8.70
2023-04-07T02:50:59.581Z,8.75
2023-04-07T02:51:59.584Z,8.75
2023-04-07T02:52:59.554Z,8.70
2023-04-07T02:53:59.561Z,9.56
2023-04-07T02:54:59.530Z,7.73
2023-04-07T02:55:59.556Z,9.40
2023-04-07T02:56:59.498Z,8.75
2023-04-07T02:57:59.520Z,8.70
2023-04-07T02:58:59.488Z,7.95
2023-04-07T02:59:59.487Z,8.65
2023-04-07T03:00:59.498Z,8.75
2023-04-07T03:01:59.642Z,8.81
2023-04-07T03:02:59.632Z,8.75
2023-04-07T03:03:59.615Z,7.90
2023-04-07T03:04:59.424Z,8.81
2023-04-07T03:05:59.446Z,8.70
2023-04-07T03:06:59.412Z,8.81
2023-04-07T03:07:59.416Z,8.81
2023-04-07T03:08:59.381Z,8.75
2023-04-07T03:09:59.400Z,8.27
2023-04-07T03:10:59.361Z,8.81
2023-04-07T03:11:59.363Z,8.70
2023-04-07T03:12:59.356Z,8.38
2023-04-07T03:13:59.371Z,8.81
2023-04-07T03:14:59.322Z,8.65
2023-04-07T03:15:59.321Z,7.95
2023-04-07T03:16:59.316Z,8.75
2023-04-07T03:17:59.348Z,8.70
2023-04-07T03:18:59.293Z,9.18
2023-04-07T03:19:59.299Z,8.75
2023-04-07T03:20:59.262Z,8.38
2023-04-07T03:21:59.281Z,8.65
2023-04-07T03:22:59.239Z,8.81
2023-04-07T03:23:59.256Z,8.86
2023-04-07T03:24:59.217Z,9.45
2023-04-07T03:25:59.223Z,8.00
2023-04-07T03:26:59.202Z,8.06
2023-04-07T03:27:59.236Z,9.51
2023-04-07T03:28:59.180Z,8.92
2023-04-07T03:29:59.182Z,8.65
2023-04-07T03:30:59.220Z,9.61
2023-04-07T03:31:59.180Z,8.75
2023-04-07T03:32:59.182Z,8.81
2023-04-07T03:33:59.156Z,8.65
2023-04-07T03:34:59.125Z,9.61
2023-04-07T03:35:59.146Z,7.73
2023-04-07T03:36:59.095Z,8.81
2023-04-07T03:37:59.101Z,8.65
2023-04-07T03:38:59.077Z,8.75
2023-04-07T03:39:59.110Z,8.75
2023-04-07T03:40:59.061Z,8.81
2023-04-07T03:41:59.083Z,8.70
2023-04-07T03:42:59.036Z,8.70
2023-04-07T03:43:59.046Z,8.81
2023-04-07T03:44:59.012Z,8.75
2023-04-07T03:45:59.093Z,9.51
2023-04-07T03:46:58.997Z,7.95
2023-04-07T03:47:59.040Z,8.00
2023-04-07T03:48:58.976Z,9.29
2023-04-07T03:49:58.993Z,8.70
2023-04-07T03:50:58.957Z,8.81
2023-04-07T03:51:58.974Z,8.70
2023-04-07T03:52:58.939Z,9.56
2023-04-07T03:53:58.948Z,9.18
2023-04-07T03:54:58.937Z,8.11
2023-04-07T03:55:58.957Z,8.81
2023-04-07T03:56:58.898Z,8.33
2023-04-07T03:57:58.903Z,8.00
2023-04-07T03:58:58.874Z,9.61
2023-04-07T03:59:58.884Z,8.81
2023-04-07T04:00:58.882Z,8.11
2023-04-07T04:01:58.961Z,8.86
2023-04-07T04:02:58.972Z,8.81
2023-04-07T04:03:59.172Z,8.81
2023-04-07T04:04:58.870Z,8.70
2023-04-07T04:06:05.365Z,8.22
2023-04-07T04:06:58.806Z,8.38
2023-04-07T04:07:58.836Z,7.73
2023-04-07T04:08:58.790Z,8.75
2023-04-07T04:09:58.805Z,8.81
2023-04-07T04:10:58.769Z,8.65
2023-04-07T04:11:58.793Z,8.86
2023-04-07T04:12:58.738Z,8.81
2023-04-07T04:13:58.756Z,8.06
2023-04-07T04:14:58.747Z,8.81
2023-04-07T04:15:58.769Z,8.75
2023-04-07T04:16:58.706Z,7.84
2023-04-07T04:17:58.757Z,8.81
2023-04-07T04:18:58.717Z,9.24
2023-04-07T04:19:58.707Z,8.81
2023-04-07T04:20:58.657Z,8.75
2023-04-07T04:21:58.688Z,8.65
2023-04-07T04:22:58.648Z,8.86
2023-04-07T04:23:58.653Z,8.86
2023-04-07T04:24:58.597Z,9.67
2023-04-07T04:25:58.584Z,8.75
2023-04-07T04:26:58.580Z,8.81
2023-04-07T04:27:58.596Z,8.97
2023-04-07T04:28:58.522Z,9.45
2023-04-07T04:29:58.828Z,10.10
2023-04-07T04:30:58.644Z,9.40
2023-04-07T04:31:58.564Z,9.51
2023-04-07T04:32:58.571Z,8.75
2023-04-07T04:33:58.515Z,7.95
2023-04-07T04:34:58.656Z,8.81
2023-04-07T04:35:58.462Z,9.24
2023-04-07T04:36:58.453Z,8.81
2023-04-07T04:37:58.490Z,8.65
2023-04-07T04:38:58.416Z,7.79
2023-04-07T04:39:58.426Z,8.86
2023-04-07T04:40:58.436Z,8.22
2023-04-07T04:41:58.424Z,9.99
2023-04-07T04:42:58.378Z,8.92
2023-04-07T04:43:58.460Z,8.81
2023-04-07T04:44:58.360Z,8.81
2023-04-07T04:45:58.361Z,8.81
2023-04-07T04:46:58.450Z,8.81
2023-04-07T04:47:58.419Z,9.02
2023-04-07T04:48:58.315Z,8.33
2023-04-07T04:49:58.361Z,9.72
2023-04-07T04:50:58.301Z,8.81
2023-04-07T04:51:58.315Z,7.57
2023-04-07T04:52:58.290Z,8.92
2023-04-07T04:53:58.304Z,8.75
2023-04-07T04:54:58.265Z,8.75
2023-04-07T04:55:58.286Z,9.35
2023-04-07T04:56:58.233Z,8.11
2023-04-07T04:57:58.271Z,8.86
2023-04-07T04:58:58.229Z,9.67
2023-04-07T04:59:58.248Z,9.51
2023-04-07T05:00:58.501Z,9.35
2023-04-07T05:01:58.300Z,8.86
2023-04-07T05:02:58.341Z,9.40
2023-04-07T05:03:58.547Z,9.72
2023-04-07T05:04:58.292Z,8.81
2023-04-07T05:05:58.172Z,8.97
2023-04-07T05:06:58.128Z,8.38
2023-04-07T05:07:58.154Z,8.86
2023-04-07T05:08:58.103Z,8.86
2023-04-07T05:09:58.105Z,8.92
2023-04-07T05:10:58.134Z,9.83
2023-04-07T05:11:58.108Z,8.92
2023-04-07T05:12:58.079Z,8.86
2023-04-07T05:13:58.067Z,8.86
2023-04-07T05:14:58.243Z,8.81
2023-04-07T05:15:58.110Z,9.29
2023-04-07T05:16:58.012Z,8.86
2023-04-07T05:17:58.075Z,8.92
2023-04-07T05:18:58.010Z,9.18
2023-04-07T05:19:58.038Z,8.00
2023-04-07T05:20:58.040Z,8.81
2023-04-07T05:21:57.993Z,8.86
2023-04-07T05:22:57.948Z,9.40
2023-04-07T05:23:57.964Z,8.92
2023-04-07T05:24:57.930Z,8.92
2023-04-07T05:25:57.943Z,9.40
2023-04-07T05:26:57.948Z,9.72
2023-04-07T05:27:57.928Z,8.97
2023-04-07T05:28:57.895Z,9.40
2023-04-07T05:29:57.955Z,9.56
2023-04-07T05:30:57.879Z,9.45
2023-04-07T05:31:57.927Z,8.86
2023-04-07T05:32:57.960Z,9.94
2023-04-07T05:33:57.865Z,9.51
2023-04-07T05:34:57.834Z,8.06
2023-04-07T05:35:57.925Z,8.92
2023-04-07T05:36:57.828Z,8.75
2023-04-07T05:37:57.814Z,8.92
2023-04-07T05:38:57.801Z,9.08
2023-04-07T05:39:57.818Z,10.10
2023-04-07T05:40:57.758Z,8.86
2023-04-07T05:41:57.775Z,8.92
2023-04-07T05:42:57.752Z,9.02
2023-04-07T05:43:57.772Z,8.92
2023-04-07T05:44:57.744Z,8.97
2023-04-07T05:45:57.856Z,8.92
2023-04-07T05:46:57.700Z,10.10
2023-04-07T05:47:57.763Z,8.97
2023-04-07T05:48:59.178Z,9.83
2023-04-07T05:49:57.699Z,9.02
2023-04-07T05:50:57.655Z,8.97
2023-04-07T05:51:57.671Z,9.24
2023-04-07T05:52:57.928Z,9.08
2023-04-07T05:53:57.661Z,9.02
2023-04-07T05:54:57.620Z,8.92
2023-04-07T05:55:57.640Z,8.97
2023-04-07T05:56:57.595Z,9.67
2023-04-07T05:57:57.613Z,8.97
2023-04-07T05:58:57.590Z,9.72
2023-04-07T05:59:57.596Z,8.97
2023-04-07T06:00:57.561Z,9.78
2023-04-07T06:01:57.681Z,9.40
2023-04-07T06:02:57.634Z,8.97
2023-04-07T06:03:57.603Z,10.04
2023-04-07T06:04:57.553Z,10.47
2023-04-07T06:05:57.532Z,8.97
2023-04-07T06:06:57.490Z,9.83
2023-04-07T06:07:57.549Z,9.02
2023-04-07T06:08:57.474Z,10.15
2023-04-07T06:09:57.484Z,8.97
2023-04-07T06:10:57.471Z,9.02
2023-04-07T06:11:57.471Z,9.99
2023-04-07T06:12:57.432Z,9.18
2023-04-07T06:13:57.452Z,8.22
2023-04-07T06:14:57.411Z,9.13
2023-04-07T06:15:57.407Z,8.11
2023-04-07T06:16:57.481Z,9.08
2023-04-07T06:17:57.530Z,8.38
2023-04-07T06:18:57.512Z,9.45
2023-04-07T06:19:58.702Z,9.18
2023-04-07T06:20:57.993Z,9.02
2023-04-07T06:21:57.350Z,9.24
2023-04-07T06:22:57.320Z,9.18
2023-04-07T06:23:57.340Z,9.18
2023-04-07T06:24:57.314Z,9.02
2023-04-07T06:25:57.299Z,8.97
2023-04-07T06:26:57.281Z,8.49
2023-04-07T06:27:57.352Z,9.18
2023-04-07T06:28:57.253Z,9.13
2023-04-07T06:29:57.280Z,9.02
2023-04-07T06:30:58.364Z,9.61
2023-04-07T06:31:57.263Z,9.13
2023-04-07T06:32:57.257Z,9.67
2023-04-07T06:33:57.245Z,9.13
2023-04-07T06:34:57.190Z,9.24
2023-04-07T06:35:57.197Z,9.18
2023-04-07T06:36:58.346Z,9.18
2023-04-07T06:37:57.209Z,9.18
2023-04-07T06:38:57.161Z,9.18
2023-04-07T06:39:57.175Z,9.24
2023-04-07T06:40:57.134Z,9.24
2023-04-07T06:41:57.136Z,9.24
2023-04-07T06:42:57.118Z,9.24
2023-04-07T06:43:57.337Z,8.27
2023-04-07T06:44:57.088Z,9.72
2023-04-07T06:45:57.116Z,9.13
2023-04-07T06:46:57.079Z,9.29
2023-04-07T06:47:57.094Z,9.24
2023-04-07T06:48:57.073Z,9.35
2023-04-07T06:49:57.070Z,9.45
2023-04-07T06:50:57.021Z,10.31
2023-04-07T06:51:57.048Z,9.99
2023-04-07T06:52:56.989Z,9.24
2023-04-07T06:53:57.010Z,10.80
2023-04-07T06:54:56.979Z,9.72
2023-04-07T06:55:56.989Z,10.21
2023-04-07T06:56:56.977Z,9.40
2023-04-07T06:57:57.216Z,8.38
2023-04-07T06:58:56.932Z,9.35
2023-04-07T06:59:56.962Z,9.24
2023-04-07T07:00:56.931Z,10.26
2023-04-07T07:01:57.020Z,9.35
2023-04-07T07:02:57.026Z,9.40
2023-04-07T07:03:57.063Z,7.63
2023-04-07T07:04:56.904Z,10.37
2023-04-07T07:05:56.849Z,9.35
2023-04-07T07:06:56.856Z,9.40
2023-04-07T07:07:56.843Z,9.45
2023-04-07T07:08:56.863Z,8.65
2023-04-07T07:09:56.809Z,9.35
2023-04-07T07:10:56.817Z,9.61
2023-04-07T07:11:56.793Z,9.35
2023-04-07T07:12:56.810Z,8.38
2023-04-07T07:13:56.773Z,9.29
2023-04-07T07:14:56.782Z,9.40
2023-04-07T07:15:56.746Z,9.35
2023-04-07T07:16:56.743Z,8.97
2023-04-07T07:17:56.780Z,9.51
2023-04-07T07:18:56.743Z,8.65
2023-04-07T07:19:56.721Z,8.43
2023-04-07T07:20:56.721Z,9.40
2023-04-07T07:21:56.679Z,8.65
2023-04-07T07:22:56.722Z,8.75
2023-04-07T07:23:56.651Z,9.40
2023-04-07T07:24:56.686Z,9.45
2023-04-07T07:25:56.634Z,8.65
2023-04-07T07:26:56.636Z,9.56
2023-04-07T07:27:56.610Z,9.78
2023-04-07T07:28:56.776Z,10.47
2023-04-07T07:29:56.627Z,10.47
2023-04-07T07:30:56.669Z,10.26
2023-04-07T07:31:56.595Z,9.51
2023-04-07T07:32:56.614Z,9.56
2023-04-07T07:33:56.545Z,9.51
2023-04-07T07:34:56.586Z,10.53
2023-04-07T07:35:56.534Z,9.99
2023-04-07T07:36:56.578Z,9.56
2023-04-07T07:37:56.514Z,9.61
2023-04-07T07:38:56.542Z,8.43
2023-04-07T07:39:56.494Z,8.65
2023-04-07T07:40:56.483Z,9.67
2023-04-07T07:41:56.656Z,10.37
2023-04-07T07:42:56.478Z,8.92
2023-04-07T07:43:56.452Z,9.72
2023-04-07T07:44:56.476Z,9.67
2023-04-07T07:45:56.474Z,10.42
2023-04-07T07:46:56.438Z,10.58
2023-04-07T07:47:56.434Z,9.78
2023-04-07T07:48:56.415Z,10.80
2023-04-07T07:49:56.391Z,8.59
2023-04-07T07:50:56.386Z,9.67
2023-04-07T07:51:56.384Z,10.37
2023-04-07T07:52:56.352Z,9.72
2023-04-07T07:53:56.328Z,9.61
2023-04-07T07:54:56.349Z,9.72
2023-04-07T07:55:56.307Z,9.67
2023-04-07T07:56:56.326Z,9.99
2023-04-07T07:57:56.287Z,9.29
2023-04-07T07:58:58.048Z,9.78
2023-04-07T07:59:56.257Z,9.67
2023-04-07T08:00:56.281Z,9.02
2023-04-07T08:01:56.280Z,8.97
2023-04-07T08:02:56.401Z,10.53
2023-04-07T08:03:56.282Z,9.72
2023-04-07T08:04:56.265Z,9.29
2023-04-07T08:05:56.209Z,9.88
2023-04-07T08:06:56.222Z,9.18
2023-04-07T08:07:56.187Z,9.78
2023-04-07T08:08:56.184Z,10.74
2023-04-07T08:09:56.144Z,9.72
2023-04-07T08:10:56.154Z,8.97
2023-04-07T08:11:56.128Z,9.99
2023-04-07T08:12:56.159Z,9.67
2023-04-07T08:13:56.106Z,9.88
2023-04-07T08:14:56.121Z,9.88
2023-04-07T08:15:56.155Z,10.74
2023-04-07T08:16:56.115Z,10.58
2023-04-07T08:17:56.567Z,9.99
2023-04-07T08:18:56.094Z,9.45
2023-04-07T08:19:56.042Z,9.99
2023-04-07T08:20:56.042Z,11.44
2023-04-07T08:21:56.023Z,10.90
2023-04-07T08:22:56.055Z,9.99
2023-04-07T08:23:56.010Z,10.69
2023-04-07T08:24:56.028Z,10.15
2023-04-07T08:25:55.998Z,10.04
2023-04-07T08:26:55.992Z,9.99
2023-04-07T08:27:55.956Z,9.99
2023-04-07T08:28:55.996Z,10.42
2023-04-07T08:29:55.933Z,9.99
2023-04-07T08:30:55.947Z,9.18
2023-04-07T08:31:55.960Z,9.18
2023-04-07T08:32:55.964Z,10.96
2023-04-07T08:33:55.893Z,11.06
2023-04-07T08:34:55.906Z,10.63
2023-04-07T08:35:55.900Z,10.96
2023-04-07T08:36:55.868Z,9.08
2023-04-07T08:37:55.850Z,10.15
2023-04-07T08:38:55.906Z,10.04
2023-04-07T08:39:55.819Z,10.26
2023-04-07T08:40:55.842Z,10.21
2023-04-07T08:41:55.793Z,10.26
2023-04-07T08:42:55.823Z,9.67
2023-04-07T08:43:55.772Z,9.18
2023-04-07T08:44:55.808Z,10.10
2023-04-07T08:45:55.748Z,10.10
2023-04-07T08:46:55.839Z,10.15
2023-04-07T08:47:55.791Z,11.01
2023-04-07T08:48:55.766Z,10.15
2023-04-07T08:49:55.707Z,9.40
2023-04-07T08:50:55.749Z,10.21
2023-04-07T08:51:55.685Z,10.15
2023-04-07T08:52:55.697Z,10.15
2023-04-07T08:53:55.664Z,10.96
2023-04-07T08:54:55.698Z,9.51
2023-04-07T08:55:55.660Z,11.06
2023-04-07T08:56:55.654Z,9.13
2023-04-07T08:57:55.618Z,10.15
2023-04-07T08:58:55.647Z,9.24
2023-04-07T08:59:55.607Z,10.15
2023-04-07T09:00:55.648Z,10.74
2023-04-07T09:01:55.596Z,10.96
2023-04-07T09:02:55.630Z,10.26
2023-04-07T09:03:55.626Z,10.21
2023-04-07T09:04:55.577Z,9.40
2023-04-07T09:05:55.547Z,10.21
2023-04-07T09:06:55.567Z,10.15
2023-04-07T09:07:55.510Z,11.12
2023-04-07T09:08:55.541Z,10.69
2023-04-07T09:09:55.501Z,10.21
2023-04-07T09:10:55.508Z,10.26
2023-04-07T09:11:55.478Z,9.35
2023-04-07T09:12:55.479Z,10.15
2023-04-07T09:13:55.457Z,11.06
2023-04-07T09:14:55.486Z,9.45
2023-04-07T09:15:55.423Z,10.63
2023-04-07T09:16:55.581Z,10.26
2023-04-07T09:17:55.458Z,10.37
2023-04-07T09:18:55.464Z,11.01
2023-04-07T09:19:55.386Z,11.01
2023-04-07T09:20:55.399Z,10.21
2023-04-07T09:21:55.363Z,9.13
2023-04-07T09:22:55.368Z,10.42
2023-04-07T09:23:55.338Z,10.42
2023-04-07T09:24:55.356Z,10.37
2023-04-07T09:25:55.325Z,10.31
2023-04-07T09:26:55.331Z,11.06
2023-04-07T09:27:55.295Z,10.58
2023-04-07T09:28:55.305Z,10.26
2023-04-07T09:29:55.273Z,9.61
2023-04-07T09:30:55.362Z,9.61
2023-04-07T09:31:55.374Z,10.37
2023-04-07T09:32:55.276Z,10.26
2023-04-07T09:33:55.237Z,10.42
2023-04-07T09:34:55.228Z,9.40
2023-04-07T09:35:55.228Z,10.31
2023-04-07T09:36:55.238Z,10.37
2023-04-07T09:37:55.179Z,10.37
2023-04-07T09:38:55.185Z,10.42
2023-04-07T09:39:55.171Z,10.15
2023-04-07T09:40:56.046Z,10.42
2023-04-07T09:41:55.139Z,10.53
2023-04-07T09:42:55.145Z,10.47
2023-04-07T09:43:55.113Z,11.12
2023-04-07T09:44:55.140Z,11.06
2023-04-07T09:45:55.151Z,10.47
2023-04-07T09:46:55.114Z,10.58
2023-04-07T09:47:55.100Z,10.42
2023-04-07T09:48:55.101Z,10.58
2023-04-07T09:49:55.052Z,9.78
2023-04-07T09:50:55.072Z,10.58
2023-04-07T09:51:55.045Z,10.69
2023-04-07T09:52:55.062Z,10.53
2023-04-07T09:53:55.018Z,10.69
2023-04-07T09:54:55.028Z,9.88
2023-04-07T09:55:55.005Z,10.58
2023-04-07T09:56:55.002Z,10.69
2023-04-07T09:57:54.969Z,10.58
2023-04-07T09:58:54.988Z,10.58
2023-04-07T09:59:54.960Z,10.74
2023-04-07T10:00:55.020Z,10.63
2023-04-07T10:01:56.749Z,10.69
2023-04-07T10:02:55.036Z,10.74
2023-04-07T10:03:55.054Z,11.49
2023-04-07T10:04:54.941Z,10.74
2023-04-07T10:05:54.881Z,10.10
2023-04-07T10:07:01.415Z,10.74
2023-04-07T10:07:54.870Z,10.74
2023-04-07T10:08:54.888Z,11.49
2023-04-07T10:09:54.846Z,10.80
2023-04-07T10:10:54.859Z,10.26
2023-04-07T10:11:54.831Z,10.80
2023-04-07T10:12:54.836Z,10.85
2023-04-07T10:13:54.793Z,10.85
2023-04-07T10:14:54.807Z,10.80
2023-04-07T10:15:54.772Z,11.66
2023-04-07T10:16:54.893Z,11.71
2023-04-07T10:17:54.803Z,10.53
2023-04-07T10:18:54.771Z,9.99
2023-04-07T10:19:54.730Z,11.76
2023-04-07T10:20:54.759Z,10.96
2023-04-07T10:21:54.725Z,10.85
2023-04-07T10:22:54.756Z,10.90
2023-04-07T10:23:54.711Z,10.90
2023-04-07T10:24:54.710Z,10.15
2023-04-07T10:25:54.670Z,11.01
2023-04-07T10:26:54.674Z,10.96
2023-04-07T10:27:54.655Z,10.90
2023-04-07T10:28:54.675Z,11.06
2023-04-07T10:29:54.630Z,10.96
2023-04-07T10:30:54.633Z,11.12
2023-04-07T10:31:54.620Z,11.06
2023-04-07T10:32:54.720Z,10.15
2023-04-07T10:33:54.589Z,10.74
2023-04-07T10:34:54.624Z,11.06
2023-04-07T10:35:54.596Z,11.71
2023-04-07T10:36:54.578Z,11.06
2023-04-07T10:37:54.567Z,9.88
2023-04-07T10:38:54.566Z,11.01
2023-04-07T10:39:54.530Z,10.15
2023-04-07T10:40:54.553Z,11.12
2023-04-07T10:41:54.495Z,11.60
2023-04-07T10:42:54.506Z,11.06
2023-04-07T10:43:54.487Z,10.90
2023-04-07T10:44:54.486Z,11.12
2023-04-07T10:45:54.565Z,11.12
2023-04-07T10:46:54.484Z,11.23
2023-04-07T10:47:54.462Z,11.17
2023-04-07T10:48:54.439Z,11.06
2023-04-07T10:49:54.415Z,11.23
2023-04-07T10:50:54.413Z,11.23
2023-04-07T10:51:54.401Z,11.01
2023-04-07T10:52:54.395Z,10.26
2023-04-07T10:53:54.401Z,11.44
2023-04-07T10:54:54.389Z,11.55
2023-04-07T10:55:54.348Z,11.23
2023-04-07T10:56:54.373Z,10.69
2023-04-07T10:57:54.353Z,12.03
2023-04-07T10:58:54.354Z,10.90
2023-04-07T10:59:54.316Z,11.49
2023-04-07T11:00:54.324Z,11.44
2023-04-07T11:01:54.354Z,11.33
2023-04-07T11:02:54.490Z,12.14
2023-04-07T11:03:54.293Z,12.08
2023-04-07T11:04:54.382Z,12.68
2023-04-07T11:05:54.260Z,11.44
2023-04-07T11:06:54.250Z,12.41
2023-04-07T11:07:54.238Z,11.49
2023-04-07T11:08:54.223Z,11.44
2023-04-07T11:09:54.204Z,13.00
2023-04-07T11:10:54.209Z,11.39
2023-04-07T11:11:54.193Z,11.39
2023-04-07T11:12:54.203Z,11.44
2023-04-07T11:13:54.157Z,12.30
2023-04-07T11:14:54.197Z,12.35
2023-04-07T11:15:54.192Z,12.35
2023-04-07T11:16:54.177Z,11.49
2023-04-07T11:17:54.181Z,12.25
2023-04-07T11:18:54.117Z,11.49
2023-04-07T11:19:54.113Z,12.46
2023-04-07T11:20:54.087Z,11.44
2023-04-07T11:21:54.106Z,11.39
2023-04-07T11:22:54.059Z,12.51
2023-04-07T11:23:54.102Z,10.85
2023-04-07T11:24:54.040Z,11.06
2023-04-07T11:25:54.104Z,11.01
2023-04-07T11:26:54.030Z,11.55
2023-04-07T11:27:54.045Z,12.30
2023-04-07T11:28:54.021Z,11.60
2023-04-07T11:29:54.006Z,11.39
2023-04-07T11:30:54.146Z,11.60
2023-04-07T11:31:54.022Z,10.85
2023-04-07T11:32:54.002Z,11.71
2023-04-07T11:33:53.985Z,11.76
2023-04-07T11:34:53.945Z,11.49
2023-04-07T11:35:54.007Z,12.51
2023-04-07T11:36:53.913Z,11.71
2023-04-07T11:37:53.944Z,11.71
2023-04-07T11:38:53.891Z,12.25
2023-04-07T11:39:53.908Z,11.55
2023-04-07T11:40:53.871Z,11.71
2023-04-07T11:41:53.873Z,11.66
2023-04-07T11:42:53.870Z,11.60
2023-04-07T11:43:53.851Z,10.69
2023-04-07T11:44:53.831Z,11.06
2023-04-07T11:45:53.872Z,10.74
2023-04-07T11:46:53.873Z,11.71
2023-04-07T11:47:53.846Z,11.71
2023-04-07T11:48:53.794Z,11.76
2023-04-07T11:49:53.799Z,11.71
2023-04-07T11:50:53.763Z,10.69
2023-04-07T11:51:53.784Z,11.55
2023-04-07T11:52:53.747Z,11.60
2023-04-07T11:53:53.782Z,11.71
2023-04-07T11:54:53.734Z,11.60
2023-04-07T11:55:53.765Z,11.66
2023-04-07T11:56:53.697Z,10.53
2023-04-07T11:57:53.717Z,11.01
2023-04-07T11:58:53.699Z,12.68
2023-04-07T11:59:53.694Z,11.71
2023-04-07T12:00:53.679Z,11.66
2023-04-07T12:01:56.980Z,10.80
2023-04-07T12:02:53.943Z,11.66
2023-04-07T12:03:54.055Z,11.60
2023-04-07T12:04:53.725Z,11.71
2023-04-07T12:05:53.673Z,11.66
2023-04-07T12:06:53.613Z,11.82
2023-04-07T12:07:53.623Z,10.90
2023-04-07T12:08:53.573Z,11.49
2023-04-07T12:09:53.588Z,11.49
2023-04-07T12:10:53.557Z,11.60
2023-04-07T12:11:53.572Z,11.66
2023-04-07T12:12:53.596Z,12.78
2023-04-07T12:13:53.537Z,10.90
2023-04-07T12:14:53.505Z,10.53
2023-04-07T12:15:53.516Z,10.31
2023-04-07T12:16:53.568Z,11.01
2023-04-07T12:17:53.549Z,11.76
2023-04-07T12:18:53.469Z,11.82
2023-04-07T12:19:53.487Z,11.76
2023-04-07T12:20:53.447Z,10.90
2023-04-07T12:21:53.467Z,10.80
2023-04-07T12:22:53.430Z,10.80
2023-04-07T12:23:53.447Z,11.87
2023-04-07T12:24:53.401Z,12.73
2023-04-07T12:25:53.404Z,10.69
2023-04-07T12:26:53.392Z,12.08
2023-04-07T12:27:53.432Z,11.76
2023-04-07T12:28:53.364Z,11.76
2023-04-07T12:29:53.380Z,11.06
2023-04-07T12:30:53.339Z,10.42
2023-04-07T12:31:53.561Z,12.57
2023-04-07T12:32:53.386Z,12.14
2023-04-07T12:33:53.339Z,11.66
2023-04-07T12:34:53.299Z,11.55
2023-04-07T12:35:53.451Z,12.19
2023-04-07T12:36:53.286Z,11.66
2023-04-07T12:37:53.301Z,11.76
2023-04-07T12:38:53.251Z,11.71
2023-04-07T12:39:53.286Z,11.39
2023-04-07T12:40:53.227Z,11.76
2023-04-07T12:41:53.395Z,10.96
2023-04-07T12:42:53.210Z,11.71
2023-04-07T12:43:53.488Z,12.19
2023-04-07T12:44:53.195Z,11.23
2023-04-07T12:45:53.275Z,11.82
2023-04-07T12:46:53.171Z,12.78
2023-04-07T12:47:53.193Z,11.06
2023-04-07T12:48:53.146Z,12.62
2023-04-07T12:49:53.200Z,12.62
2023-04-07T12:50:53.129Z,12.62
2023-04-07T12:51:53.133Z,11.82
2023-04-07T12:52:53.116Z,11.82
2023-04-07T12:53:53.143Z,11.71
2023-04-07T12:54:53.084Z,12.41
2023-04-07T12:55:53.092Z,11.82
2023-04-07T12:56:53.074Z,11.82
2023-04-07T12:57:53.075Z,11.92
2023-04-07T12:58:53.054Z,11.44
2023-04-07T12:59:53.109Z,12.78
2023-04-07T13:00:53.064Z,11.87
2023-04-07T13:01:53.161Z,11.71
2023-04-07T13:02:53.255Z,11.92
2023-04-07T13:03:53.780Z,12.78
2023-04-07T13:04:53.023Z,11.49
2023-04-07T13:05:53.008Z,11.76
2023-04-07T13:06:52.996Z,11.28
2023-04-07T13:07:52.993Z,11.71